sensor_id;sensor_type;location;lat;lon;timestamp;P1;durP1;ratioP1;P2;durP2;ratioP2
41259;SDS011;26993;48.958;9.330;2022-09-09T00:00:29;2.47;;;1.50;;
41259;SDS011;26993;48.958;9.330;2022-09-09T00:03:22;2.17;;;1.33;;
41259;SDS011;26993;48.958;9.330;2022-09-09T00:06:14;3.33;;;1.40;;
41259;SDS011;26993;48.958;9.330;2022-09-09T00:09:08;6.63;;;1.87;;
41259;SDS011;26993;48.958;9.330;2022-09-09T00:12:00;5.53;;;1.60;;
41259;SDS011;26993;48.958;9.330;2022-09-09T00:14:51;4.13;;;1.87;;
41259;SDS011;26993;48.958;9.330;2022-09-09T00:17:43;4.87;;;1.60;;
41259;SDS011;26993;48.958;9.330;2022-09-09T00:20:35;4.40;;;1.40;;
41259;SDS011;26993;48.958;9.330;2022-09-09T00:23:32;4.90;;;1.43;;
41259;SDS011;26993;48.958;9.330;2022-09-09T00:26:22;5.47;;;1.50;;
41259;SDS011;26993;48.958;9.330;2022-09-09T00:29:20;3.70;;;1.40;;
41259;SDS011;26993;48.958;9.330;2022-09-09T00:32:16;3.67;;;1.20;;
41259;SDS011;26993;48.958;9.330;2022-09-09T00:35:17;7.07;;;1.67;;
41259;SDS011;26993;48.958;9.330;2022-09-09T00:38:10;4.13;;;1.67;;
41259;SDS011;26993;48.958;9.330;2022-09-09T00:41:01;4.03;;;1.80;;
41259;SDS011;26993;48.958;9.330;2022-09-09T00:43:56;7.73;;;1.77;;
41259;SDS011;26993;48.958;9.330;2022-09-09T00:46:53;5.07;;;1.80;;
41259;SDS011;26993;48.958;9.330;2022-09-09T00:49:49;6.47;;;1.70;;
41259;SDS011;26993;48.958;9.330;2022-09-09T00:52:47;2.07;;;1.60;;
41259;SDS011;26993;48.958;9.330;2022-09-09T00:55:46;4.83;;;1.60;;
41259;SDS011;26993;48.958;9.330;2022-09-09T00:58:36;3.13;;;1.80;;
41259;SDS011;26993;48.958;9.330;2022-09-09T01:01:23;8.70;;;2.43;;
41259;SDS011;26993;48.958;9.330;2022-09-09T01:04:12;2.97;;;1.57;;
41259;SDS011;26993;48.958;9.330;2022-09-09T01:07:03;2.77;;;1.50;;
41259;SDS011;26993;48.958;9.330;2022-09-09T01:09:59;5.67;;;1.67;;
41259;SDS011;26993;48.958;9.330;2022-09-09T01:12:49;5.17;;;1.60;;
41259;SDS011;26993;48.958;9.330;2022-09-09T01:15:38;9.00;;;1.93;;
41259;SDS011;26993;48.958;9.330;2022-09-09T01:18:28;4.37;;;1.33;;
41259;SDS011;26993;48.958;9.330;2022-09-09T01:21:22;3.53;;;1.60;;
41259;SDS011;26993;48.958;9.330;2022-09-09T01:24:20;3.33;;;1.60;;
41259;SDS011;26993;48.958;9.330;2022-09-09T01:27:13;2.87;;;1.53;;
41259;SDS011;26993;48.958;9.330;2022-09-09T01:30:04;4.97;;;1.67;;
41259;SDS011;26993;48.958;9.330;2022-09-09T01:32:55;5.77;;;1.90;;
41259;SDS011;26993;48.958;9.330;2022-09-09T01:35:46;5.90;;;1.57;;
41259;SDS011;26993;48.958;9.330;2022-09-09T01:38:39;4.63;;;1.50;;
41259;SDS011;26993;48.958;9.330;2022-09-09T01:41:26;6.77;;;1.73;;
41259;SDS011;26993;48.958;9.330;2022-09-09T01:44:15;4.17;;;1.43;;
41259;SDS011;26993;48.958;9.330;2022-09-09T01:47:03;5.90;;;1.40;;
41259;SDS011;26993;48.958;9.330;2022-09-09T01:49:50;6.60;;;1.50;;
41259;SDS011;26993;48.958;9.330;2022-09-09T01:52:37;3.87;;;1.50;;
41259;SDS011;26993;48.958;9.330;2022-09-09T01:55:28;3.50;;;1.30;;
41259;SDS011;26993;48.958;9.330;2022-09-09T01:58:18;2.73;;;1.63;;
41259;SDS011;26993;48.958;9.330;2022-09-09T02:01:18;4.50;;;1.80;;
41259;SDS011;26993;48.958;9.330;2022-09-09T02:04:17;5.57;;;1.50;;
41259;SDS011;26993;48.958;9.330;2022-09-09T02:07:12;4.47;;;1.70;;
41259;SDS011;26993;48.958;9.330;2022-09-09T02:10:08;5.80;;;1.60;;
41259;SDS011;26993;48.958;9.330;2022-09-09T02:12:59;5.37;;;1.57;;
41259;SDS011;26993;48.958;9.330;2022-09-09T02:15:52;4.67;;;1.90;;
41259;SDS011;26993;48.958;9.330;2022-09-09T02:18:47;6.33;;;1.70;;
41259;SDS011;26993;48.958;9.330;2022-09-09T02:21:37;6.90;;;1.97;;
41259;SDS011;26993;48.958;9.330;2022-09-09T02:24:25;9.53;;;1.67;;
41259;SDS011;26993;48.958;9.330;2022-09-09T02:27:14;5.50;;;1.70;;
41259;SDS011;26993;48.958;9.330;2022-09-09T02:30:02;7.40;;;1.50;;
41259;SDS011;26993;48.958;9.330;2022-09-09T02:32:50;3.87;;;1.50;;
41259;SDS011;26993;48.958;9.330;2022-09-09T02:35:43;8.87;;;2.17;;
41259;SDS011;26993;48.958;9.330;2022-09-09T02:38:33;5.43;;;1.77;;
41259;SDS011;26993;48.958;9.330;2022-09-09T02:41:22;5.73;;;1.70;;
41259;SDS011;26993;48.958;9.330;2022-09-09T02:44:13;2.43;;;1.50;;
41259;SDS011;26993;48.958;9.330;2022-09-09T02:47:08;4.17;;;1.50;;
41259;SDS011;26993;48.958;9.330;2022-09-09T02:50:06;7.80;;;1.53;;
41259;SDS011;26993;48.958;9.330;2022-09-09T02:53:02;6.40;;;1.70;;
41259;SDS011;26993;48.958;9.330;2022-09-09T02:55:57;4.37;;;1.60;;
41259;SDS011;26993;48.958;9.330;2022-09-09T02:58:49;2.00;;;1.30;;
41259;SDS011;26993;48.958;9.330;2022-09-09T03:01:37;3.90;;;1.30;;
41259;SDS011;26993;48.958;9.330;2022-09-09T03:04:25;4.13;;;1.70;;
41259;SDS011;26993;48.958;9.330;2022-09-09T03:07:11;2.67;;;1.43;;
41259;SDS011;26993;48.958;9.330;2022-09-09T03:09:59;5.17;;;1.60;;
41259;SDS011;26993;48.958;9.330;2022-09-09T03:12:46;7.67;;;2.13;;
41259;SDS011;26993;48.958;9.330;2022-09-09T03:15:33;5.40;;;1.50;;
41259;SDS011;26993;48.958;9.330;2022-09-09T03:18:20;6.47;;;1.60;;
41259;SDS011;26993;48.958;9.330;2022-09-09T03:21:07;2.13;;;1.23;;
41259;SDS011;26993;48.958;9.330;2022-09-09T03:23:53;10.40;;;1.90;;
41259;SDS011;26993;48.958;9.330;2022-09-09T03:26:41;5.10;;;1.40;;
41259;SDS011;26993;48.958;9.330;2022-09-09T03:29:29;9.70;;;1.60;;
41259;SDS011;26993;48.958;9.330;2022-09-09T03:32:16;6.57;;;1.80;;
41259;SDS011;26993;48.958;9.330;2022-09-09T03:35:03;4.23;;;1.33;;
41259;SDS011;26993;48.958;9.330;2022-09-09T03:37:50;4.80;;;1.50;;
41259;SDS011;26993;48.958;9.330;2022-09-09T03:40:37;5.33;;;1.70;;
41259;SDS011;26993;48.958;9.330;2022-09-09T03:43:25;5.20;;;1.50;;
41259;SDS011;26993;48.958;9.330;2022-09-09T03:46:12;6.10;;;1.90;;
41259;SDS011;26993;48.958;9.330;2022-09-09T03:48:59;3.30;;;1.90;;
41259;SDS011;26993;48.958;9.330;2022-09-09T03:51:47;5.17;;;2.00;;
41259;SDS011;26993;48.958;9.330;2022-09-09T03:54:34;5.17;;;1.93;;
41259;SDS011;26993;48.958;9.330;2022-09-09T03:57:20;5.00;;;2.20;;
41259;SDS011;26993;48.958;9.330;2022-09-09T04:00:09;5.13;;;2.13;;
41259;SDS011;26993;48.958;9.330;2022-09-09T04:02:56;3.73;;;2.20;;
41259;SDS011;26993;48.958;9.330;2022-09-09T04:05:43;4.30;;;1.83;;
41259;SDS011;26993;48.958;9.330;2022-09-09T04:08:30;2.80;;;1.60;;
41259;SDS011;26993;48.958;9.330;2022-09-09T04:11:17;6.43;;;1.73;;
41259;SDS011;26993;48.958;9.330;2022-09-09T04:14:04;4.47;;;1.53;;
41259;SDS011;26993;48.958;9.330;2022-09-09T04:16:53;7.10;;;1.90;;
41259;SDS011;26993;48.958;9.330;2022-09-09T04:19:42;3.73;;;1.40;;
41259;SDS011;26993;48.958;9.330;2022-09-09T04:22:29;4.33;;;1.60;;
41259;SDS011;26993;48.958;9.330;2022-09-09T04:25:15;6.10;;;2.00;;
41259;SDS011;26993;48.958;9.330;2022-09-09T04:28:02;4.87;;;1.77;;
41259;SDS011;26993;48.958;9.330;2022-09-09T04:30:49;4.53;;;1.50;;
41259;SDS011;26993;48.958;9.330;2022-09-09T04:33:37;6.37;;;1.80;;
41259;SDS011;26993;48.958;9.330;2022-09-09T04:36:24;4.57;;;1.67;;
41259;SDS011;26993;48.958;9.330;2022-09-09T04:39:11;6.93;;;1.70;;
41259;SDS011;26993;48.958;9.330;2022-09-09T04:41:57;4.20;;;1.80;;
41259;SDS011;26993;48.958;9.330;2022-09-09T04:44:44;5.30;;;1.57;;
41259;SDS011;26993;48.958;9.330;2022-09-09T04:47:31;2.73;;;1.40;;
41259;SDS011;26993;48.958;9.330;2022-09-09T04:50:19;3.43;;;1.33;;
41259;SDS011;26993;48.958;9.330;2022-09-09T04:53:06;4.73;;;1.47;;
41259;SDS011;26993;48.958;9.330;2022-09-09T04:56:00;8.57;;;2.10;;
41259;SDS011;26993;48.958;9.330;2022-09-09T04:58:47;7.93;;;1.80;;
41259;SDS011;26993;48.958;9.330;2022-09-09T05:01:34;3.50;;;1.80;;
41259;SDS011;26993;48.958;9.330;2022-09-09T05:04:20;6.97;;;2.07;;
41259;SDS011;26993;48.958;9.330;2022-09-09T05:07:09;5.80;;;2.10;;
41259;SDS011;26993;48.958;9.330;2022-09-09T05:09:55;4.90;;;1.90;;
41259;SDS011;26993;48.958;9.330;2022-09-09T05:12:42;5.80;;;2.17;;
41259;SDS011;26993;48.958;9.330;2022-09-09T05:15:29;7.00;;;1.73;;
41259;SDS011;26993;48.958;9.330;2022-09-09T05:18:16;3.93;;;1.70;;
41259;SDS011;26993;48.958;9.330;2022-09-09T05:21:03;5.97;;;1.70;;
41259;SDS011;26993;48.958;9.330;2022-09-09T05:23:51;4.27;;;1.90;;
41259;SDS011;26993;48.958;9.330;2022-09-09T05:26:38;5.13;;;1.67;;
41259;SDS011;26993;48.958;9.330;2022-09-09T05:29:25;4.23;;;1.40;;
41259;SDS011;26993;48.958;9.330;2022-09-09T05:32:12;5.80;;;1.63;;
41259;SDS011;26993;48.958;9.330;2022-09-09T05:35:00;3.70;;;1.60;;
41259;SDS011;26993;48.958;9.330;2022-09-09T05:37:47;7.53;;;1.70;;
41259;SDS011;26993;48.958;9.330;2022-09-09T05:40:35;6.37;;;1.93;;
41259;SDS011;26993;48.958;9.330;2022-09-09T05:43:22;3.47;;;1.53;;
41259;SDS011;26993;48.958;9.330;2022-09-09T05:46:10;5.40;;;1.50;;
41259;SDS011;26993;48.958;9.330;2022-09-09T05:48:58;3.50;;;1.77;;
41259;SDS011;26993;48.958;9.330;2022-09-09T05:51:45;10.43;;;1.97;;
41259;SDS011;26993;48.958;9.330;2022-09-09T05:54:32;6.60;;;2.20;;
41259;SDS011;26993;48.958;9.330;2022-09-09T05:57:20;10.43;;;2.23;;
41259;SDS011;26993;48.958;9.330;2022-09-09T06:00:07;3.70;;;1.73;;
41259;SDS011;26993;48.958;9.330;2022-09-09T06:02:55;3.47;;;1.60;;
41259;SDS011;26993;48.958;9.330;2022-09-09T06:05:41;5.23;;;1.60;;
41259;SDS011;26993;48.958;9.330;2022-09-09T06:08:28;2.87;;;1.23;;
41259;SDS011;26993;48.958;9.330;2022-09-09T06:11:16;2.57;;;1.50;;
41259;SDS011;26993;48.958;9.330;2022-09-09T06:14:06;7.87;;;1.57;;
41259;SDS011;26993;48.958;9.330;2022-09-09T06:16:53;2.13;;;1.20;;
41259;SDS011;26993;48.958;9.330;2022-09-09T06:19:41;5.18;;;1.40;;
41259;SDS011;26993;48.958;9.330;2022-09-09T06:22:28;9.10;;;1.50;;
41259;SDS011;26993;48.958;9.330;2022-09-09T06:25:15;3.55;;;1.60;;
41259;SDS011;26993;48.958;9.330;2022-09-09T06:28:03;4.38;;;1.52;;
41259;SDS011;26993;48.958;9.330;2022-09-09T06:30:55;4.50;;;1.70;;
41259;SDS011;26993;48.958;9.330;2022-09-09T06:33:43;4.90;;;1.63;;
41259;SDS011;26993;48.958;9.330;2022-09-09T06:36:31;4.30;;;1.52;;
41259;SDS011;26993;48.958;9.330;2022-09-09T06:39:19;6.28;;;1.85;;
41259;SDS011;26993;48.958;9.330;2022-09-09T06:42:06;5.35;;;1.88;;
41259;SDS011;26993;48.958;9.330;2022-09-09T06:44:53;5.63;;;1.88;;
41259;SDS011;26993;48.958;9.330;2022-09-09T06:47:41;8.95;;;2.00;;
41259;SDS011;26993;48.958;9.330;2022-09-09T06:50:28;6.72;;;1.90;;
41259;SDS011;26993;48.958;9.330;2022-09-09T06:53:15;7.40;;;1.85;;
41259;SDS011;26993;48.958;9.330;2022-09-09T06:56:17;6.13;;;1.33;;
41259;SDS011;26993;48.958;9.330;2022-09-09T06:59:07;6.15;;;1.30;;
41259;SDS011;26993;48.958;9.330;2022-09-09T07:01:58;3.03;;;1.25;;
41259;SDS011;26993;48.958;9.330;2022-09-09T07:04:46;3.03;;;1.33;;
41259;SDS011;26993;48.958;9.330;2022-09-09T07:07:36;2.88;;;1.27;;
41259;SDS011;26993;48.958;9.330;2022-09-09T07:10:23;3.17;;;1.40;;
41259;SDS011;26993;48.958;9.330;2022-09-09T07:13:10;5.70;;;1.88;;
41259;SDS011;26993;48.958;9.330;2022-09-09T07:16:02;5.43;;;1.60;;
41259;SDS011;26993;48.958;9.330;2022-09-09T07:18:50;5.05;;;1.80;;
41259;SDS011;26993;48.958;9.330;2022-09-09T07:21:38;7.25;;;1.30;;
41259;SDS011;26993;48.958;9.330;2022-09-09T07:24:25;4.30;;;1.30;;
41259;SDS011;26993;48.958;9.330;2022-09-09T07:27:15;5.00;;;1.60;;
41259;SDS011;26993;48.958;9.330;2022-09-09T07:30:02;6.25;;;1.52;;
41259;SDS011;26993;48.958;9.330;2022-09-09T07:32:50;5.93;;;1.73;;
41259;SDS011;26993;48.958;9.330;2022-09-09T07:35:37;3.05;;;1.25;;
41259;SDS011;26993;48.958;9.330;2022-09-09T07:38:25;4.45;;;1.90;;
41259;SDS011;26993;48.958;9.330;2022-09-09T07:41:13;5.03;;;1.33;;
41259;SDS011;26993;48.958;9.330;2022-09-09T07:44:05;4.05;;;1.40;;
41259;SDS011;26993;48.958;9.330;2022-09-09T07:46:53;7.50;;;1.45;;
41259;SDS011;26993;48.958;9.330;2022-09-09T07:49:40;7.68;;;1.70;;
41259;SDS011;26993;48.958;9.330;2022-09-09T07:52:26;13.73;;;1.80;;
41259;SDS011;26993;48.958;9.330;2022-09-09T07:55:14;7.05;;;1.40;;
41259;SDS011;26993;48.958;9.330;2022-09-09T07:58:01;3.95;;;1.33;;
41259;SDS011;26993;48.958;9.330;2022-09-09T08:00:48;7.55;;;1.70;;
41259;SDS011;26993;48.958;9.330;2022-09-09T08:03:35;5.63;;;1.40;;
41259;SDS011;26993;48.958;9.330;2022-09-09T08:06:21;6.47;;;1.50;;
41259;SDS011;26993;48.958;9.330;2022-09-09T08:09:10;6.78;;;1.40;;
41259;SDS011;26993;48.958;9.330;2022-09-09T08:11:58;5.07;;;1.50;;
41259;SDS011;26993;48.958;9.330;2022-09-09T08:14:46;8.93;;;1.48;;
41259;SDS011;26993;48.958;9.330;2022-09-09T08:17:33;8.05;;;1.52;;
41259;SDS011;26993;48.958;9.330;2022-09-09T08:20:20;10.45;;;1.83;;
41259;SDS011;26993;48.958;9.330;2022-09-09T08:23:08;7.63;;;1.58;;
41259;SDS011;26993;48.958;9.330;2022-09-09T08:25:54;14.63;;;1.75;;
41259;SDS011;26993;48.958;9.330;2022-09-09T08:28:43;9.95;;;1.63;;
41259;SDS011;26993;48.958;9.330;2022-09-09T08:31:30;4.85;;;1.50;;
41259;SDS011;26993;48.958;9.330;2022-09-09T08:34:22;9.73;;;1.58;;
41259;SDS011;26993;48.958;9.330;2022-09-09T08:37:12;5.07;;;1.25;;
41259;SDS011;26993;48.958;9.330;2022-09-09T08:39:58;11.63;;;1.70;;
41259;SDS011;26993;48.958;9.330;2022-09-09T08:42:45;6.20;;;1.45;;
41259;SDS011;26993;48.958;9.330;2022-09-09T08:45:41;7.63;;;1.20;;
41259;SDS011;26993;48.958;9.330;2022-09-09T08:48:48;5.55;;;1.15;;
41259;SDS011;26993;48.958;9.330;2022-09-09T08:51:41;4.28;;;1.05;;
41259;SDS011;26993;48.958;9.330;2022-09-09T08:54:30;7.18;;;1.75;;
41259;SDS011;26993;48.958;9.330;2022-09-09T08:57:21;3.15;;;1.08;;
41259;SDS011;26993;48.958;9.330;2022-09-09T09:00:13;9.38;;;1.40;;
41259;SDS011;26993;48.958;9.330;2022-09-09T09:03:03;6.38;;;1.23;;
41259;SDS011;26993;48.958;9.330;2022-09-09T09:05:57;10.68;;;1.70;;
41259;SDS011;26993;48.958;9.330;2022-09-09T09:08:51;7.90;;;1.52;;
41259;SDS011;26993;48.958;9.330;2022-09-09T09:11:45;6.40;;;1.30;;
41259;SDS011;26993;48.958;9.330;2022-09-09T09:14:35;5.93;;;1.40;;
41259;SDS011;26993;48.958;9.330;2022-09-09T09:17:24;3.58;;;1.10;;
41259;SDS011;26993;48.958;9.330;2022-09-09T09:20:17;4.75;;;1.35;;
41259;SDS011;26993;48.958;9.330;2022-09-09T09:23:12;5.03;;;1.23;;
41259;SDS011;26993;48.958;9.330;2022-09-09T09:26:07;7.45;;;1.40;;
41259;SDS011;26993;48.958;9.330;2022-09-09T09:28:57;4.65;;;1.80;;
41259;SDS011;26993;48.958;9.330;2022-09-09T09:31:45;4.78;;;1.17;;
41259;SDS011;26993;48.958;9.330;2022-09-09T09:34:37;4.47;;;1.70;;
41259;SDS011;26993;48.958;9.330;2022-09-09T09:37:28;4.30;;;1.40;;
41259;SDS011;26993;48.958;9.330;2022-09-09T09:40:19;4.25;;;1.40;;
41259;SDS011;26993;48.958;9.330;2022-09-09T09:43:16;5.70;;;1.48;;
41259;SDS011;26993;48.958;9.330;2022-09-09T09:46:17;3.30;;;1.35;;
41259;SDS011;26993;48.958;9.330;2022-09-09T09:49:09;4.93;;;1.70;;
41259;SDS011;26993;48.958;9.330;2022-09-09T09:51:59;6.85;;;1.48;;
41259;SDS011;26993;48.958;9.330;2022-09-09T09:54:48;8.07;;;1.38;;
41259;SDS011;26993;48.958;9.330;2022-09-09T09:57:36;5.18;;;1.42;;
41259;SDS011;26993;48.958;9.330;2022-09-09T10:00:25;3.67;;;1.42;;
41259;SDS011;26993;48.958;9.330;2022-09-09T10:03:14;5.20;;;1.13;;
41259;SDS011;26993;48.958;9.330;2022-09-09T10:06:08;6.22;;;1.17;;
41259;SDS011;26993;48.958;9.330;2022-09-09T10:08:54;4.45;;;1.20;;
41259;SDS011;26993;48.958;9.330;2022-09-09T10:11:44;4.40;;;1.02;;
41259;SDS011;26993;48.958;9.330;2022-09-09T10:14:39;4.65;;;1.17;;
41259;SDS011;26993;48.958;9.330;2022-09-09T10:17:33;4.50;;;1.20;;
41259;SDS011;26993;48.958;9.330;2022-09-09T10:20:29;3.88;;;1.50;;
41259;SDS011;26993;48.958;9.330;2022-09-09T10:23:28;6.65;;;1.50;;
41259;SDS011;26993;48.958;9.330;2022-09-09T10:26:32;6.18;;;1.10;;
41259;SDS011;26993;48.958;9.330;2022-09-09T10:29:33;6.63;;;1.13;;
41259;SDS011;26993;48.958;9.330;2022-09-09T10:32:46;5.78;;;1.40;;
41259;SDS011;26993;48.958;9.330;2022-09-09T10:35:39;7.97;;;1.10;;
41259;SDS011;26993;48.958;9.330;2022-09-09T10:38:34;10.77;;;1.27;;
41259;SDS011;26993;48.958;9.330;2022-09-09T10:41:35;4.63;;;0.80;;
41259;SDS011;26993;48.958;9.330;2022-09-09T10:44:36;3.83;;;1.00;;
41259;SDS011;26993;48.958;9.330;2022-09-09T10:47:37;2.60;;;0.85;;
41259;SDS011;26993;48.958;9.330;2022-09-09T10:50:43;4.88;;;1.20;;
41259;SDS011;26993;48.958;9.330;2022-09-09T10:53:36;8.45;;;1.15;;
41259;SDS011;26993;48.958;9.330;2022-09-09T10:56:31;4.03;;;0.77;;
41259;SDS011;26993;48.958;9.330;2022-09-09T10:59:20;3.63;;;0.80;;
41259;SDS011;26993;48.958;9.330;2022-09-09T11:02:15;3.58;;;0.80;;
41259;SDS011;26993;48.958;9.330;2022-09-09T11:05:06;2.08;;;0.80;;
41259;SDS011;26993;48.958;9.330;2022-09-09T11:08:02;2.22;;;0.82;;
41259;SDS011;26993;48.958;9.330;2022-09-09T11:10:57;3.00;;;0.90;;
41259;SDS011;26993;48.958;9.330;2022-09-09T11:13:49;2.80;;;0.57;;
41259;SDS011;26993;48.958;9.330;2022-09-09T11:16:44;2.25;;;0.95;;
41259;SDS011;26993;48.958;9.330;2022-09-09T11:19:37;2.10;;;0.80;;
41259;SDS011;26993;48.958;9.330;2022-09-09T11:22:27;4.95;;;0.90;;
41259;SDS011;26993;48.958;9.330;2022-09-09T11:25:17;6.72;;;1.40;;
41259;SDS011;26993;48.958;9.330;2022-09-09T11:28:12;5.38;;;1.20;;
41259;SDS011;26993;48.958;9.330;2022-09-09T11:31:31;10.98;;;1.42;;
41259;SDS011;26993;48.958;9.330;2022-09-09T11:34:38;15.55;;;1.60;;
41259;SDS011;26993;48.958;9.330;2022-09-09T11:40:53;3.65;;;1.17;;
41259;SDS011;26993;48.958;9.330;2022-09-09T11:43:44;4.53;;;1.13;;
41259;SDS011;26993;48.958;9.330;2022-09-09T11:46:34;4.45;;;1.00;;
41259;SDS011;26993;48.958;9.330;2022-09-09T11:49:26;3.10;;;1.02;;
41259;SDS011;26993;48.958;9.330;2022-09-09T11:52:21;5.78;;;0.95;;
41259;SDS011;26993;48.958;9.330;2022-09-09T11:55:11;4.00;;;1.08;;
41259;SDS011;26993;48.958;9.330;2022-09-09T11:58:15;2.90;;;1.10;;
41259;SDS011;26993;48.958;9.330;2022-09-09T12:01:15;4.38;;;1.08;;
41259;SDS011;26993;48.958;9.330;2022-09-09T12:04:17;3.17;;;0.60;;
41259;SDS011;26993;48.958;9.330;2022-09-09T12:07:24;1.55;;;0.60;;
41259;SDS011;26993;48.958;9.330;2022-09-09T12:10:22;1.90;;;0.85;;
41259;SDS011;26993;48.958;9.330;2022-09-09T12:13:16;1.77;;;0.55;;
41259;SDS011;26993;48.958;9.330;2022-09-09T12:16:04;0.95;;;0.60;;
41259;SDS011;26993;48.958;9.330;2022-09-09T12:18:51;2.72;;;0.70;;
41259;SDS011;26993;48.958;9.330;2022-09-09T12:21:39;2.33;;;0.60;;
41259;SDS011;26993;48.958;9.330;2022-09-09T12:24:34;2.58;;;0.70;;
41259;SDS011;26993;48.958;9.330;2022-09-09T12:27:27;1.85;;;0.50;;
41259;SDS011;26993;48.958;9.330;2022-09-09T12:30:18;0.82;;;0.57;;
41259;SDS011;26993;48.958;9.330;2022-09-09T12:33:08;1.40;;;0.60;;
41259;SDS011;26993;48.958;9.330;2022-09-09T12:35:58;1.52;;;0.50;;
41259;SDS011;26993;48.958;9.330;2022-09-09T12:38:47;2.60;;;0.70;;
41259;SDS011;26993;48.958;9.330;2022-09-09T12:41:37;1.95;;;0.45;;
41259;SDS011;26993;48.958;9.330;2022-09-09T12:44:24;1.40;;;0.60;;
41259;SDS011;26993;48.958;9.330;2022-09-09T12:47:13;0.43;;;0.40;;
41259;SDS011;26993;48.958;9.330;2022-09-09T12:49:59;0.75;;;0.40;;
41259;SDS011;26993;48.958;9.330;2022-09-09T12:52:46;0.75;;;0.40;;
41259;SDS011;26993;48.958;9.330;2022-09-09T12:55:36;1.73;;;0.60;;
41259;SDS011;26993;48.958;9.330;2022-09-09T12:58:26;3.53;;;0.50;;
41259;SDS011;26993;48.958;9.330;2022-09-09T13:01:18;3.13;;;0.75;;
41259;SDS011;26993;48.958;9.330;2022-09-09T13:04:16;1.48;;;0.70;;
41259;SDS011;26993;48.958;9.330;2022-09-09T13:07:07;3.33;;;0.68;;
41259;SDS011;26993;48.958;9.330;2022-09-09T13:09:55;7.45;;;0.80;;
41259;SDS011;26993;48.958;9.330;2022-09-09T13:12:41;4.85;;;0.90;;
41259;SDS011;26993;48.958;9.330;2022-09-09T13:15:30;2.17;;;0.65;;
41259;SDS011;26993;48.958;9.330;2022-09-09T13:18:17;4.75;;;1.00;;
41259;SDS011;26993;48.958;9.330;2022-09-09T13:21:08;2.40;;;0.60;;
41259;SDS011;26993;48.958;9.330;2022-09-09T13:23:55;2.13;;;0.75;;
41259;SDS011;26993;48.958;9.330;2022-09-09T13:26:42;2.50;;;0.70;;
41259;SDS011;26993;48.958;9.330;2022-09-09T13:29:30;1.80;;;0.63;;
41259;SDS011;26993;48.958;9.330;2022-09-09T13:32:19;4.03;;;0.90;;
41259;SDS011;26993;48.958;9.330;2022-09-09T13:38:09;2.05;;;0.70;;
41259;SDS011;26993;48.958;9.330;2022-09-09T13:40:57;2.35;;;0.82;;
41259;SDS011;26993;48.958;9.330;2022-09-09T13:43:47;2.17;;;0.88;;
41259;SDS011;26993;48.958;9.330;2022-09-09T13:46:35;5.35;;;1.35;;
41259;SDS011;26993;48.958;9.330;2022-09-09T13:49:27;1.30;;;0.80;;
41259;SDS011;26993;48.958;9.330;2022-09-09T13:52:18;2.33;;;0.73;;
41259;SDS011;26993;48.958;9.330;2022-09-09T13:55:07;3.28;;;0.70;;
41259;SDS011;26993;48.958;9.330;2022-09-09T13:57:55;2.22;;;0.80;;
41259;SDS011;26993;48.958;9.330;2022-09-09T14:00:43;2.20;;;0.68;;
41259;SDS011;26993;48.958;9.330;2022-09-09T14:03:31;2.55;;;0.73;;
41259;SDS011;26993;48.958;9.330;2022-09-09T14:06:20;4.13;;;0.80;;
41259;SDS011;26993;48.958;9.330;2022-09-09T14:09:09;1.83;;;0.60;;
41259;SDS011;26993;48.958;9.330;2022-09-09T14:11:57;1.88;;;0.70;;
41259;SDS011;26993;48.958;9.330;2022-09-09T14:14:44;5.03;;;0.98;;
41259;SDS011;26993;48.958;9.330;2022-09-09T14:17:31;1.98;;;1.00;;
41259;SDS011;26993;48.958;9.330;2022-09-09T14:20:19;1.27;;;0.70;;
41259;SDS011;26993;48.958;9.330;2022-09-09T14:23:07;2.65;;;0.90;;
41259;SDS011;26993;48.958;9.330;2022-09-09T14:25:57;3.17;;;0.70;;
41259;SDS011;26993;48.958;9.330;2022-09-09T14:28:43;3.38;;;0.75;;
41259;SDS011;26993;48.958;9.330;2022-09-09T14:31:31;1.80;;;0.60;;
41259;SDS011;26993;48.958;9.330;2022-09-09T14:34:17;5.15;;;0.88;;
41259;SDS011;26993;48.958;9.330;2022-09-09T14:37:04;2.03;;;0.50;;
41259;SDS011;26993;48.958;9.330;2022-09-09T14:39:52;1.38;;;0.60;;
41259;SDS011;26993;48.958;9.330;2022-09-09T14:42:40;2.85;;;0.52;;
41259;SDS011;26993;48.958;9.330;2022-09-09T14:45:26;7.55;;;1.20;;
41259;SDS011;26993;48.958;9.330;2022-09-09T14:48:15;1.13;;;0.60;;
41259;SDS011;26993;48.958;9.330;2022-09-09T14:51:05;5.03;;;0.80;;
41259;SDS011;26993;48.958;9.330;2022-09-09T14:53:54;2.83;;;0.60;;
41259;SDS011;26993;48.958;9.330;2022-09-09T14:56:46;3.38;;;0.73;;
41259;SDS011;26993;48.958;9.330;2022-09-09T14:59:32;2.58;;;0.73;;
41259;SDS011;26993;48.958;9.330;2022-09-09T15:02:20;3.83;;;0.60;;
41259;SDS011;26993;48.958;9.330;2022-09-09T15:05:07;2.42;;;0.70;;
41259;SDS011;26993;48.958;9.330;2022-09-09T15:07:54;2.38;;;0.60;;
41259;SDS011;26993;48.958;9.330;2022-09-09T15:10:41;1.58;;;0.70;;
41259;SDS011;26993;48.958;9.330;2022-09-09T15:13:31;1.30;;;0.60;;
41259;SDS011;26993;48.958;9.330;2022-09-09T15:16:18;1.70;;;0.80;;
41259;SDS011;26993;48.958;9.330;2022-09-09T15:19:05;3.92;;;0.75;;
41259;SDS011;26993;48.958;9.330;2022-09-09T15:21:52;2.92;;;0.70;;
41259;SDS011;26993;48.958;9.330;2022-09-09T15:24:39;2.60;;;0.60;;
41259;SDS011;26993;48.958;9.330;2022-09-09T15:27:26;2.70;;;0.75;;
41259;SDS011;26993;48.958;9.330;2022-09-09T15:30:15;3.72;;;0.80;;
41259;SDS011;26993;48.958;9.330;2022-09-09T15:33:07;1.77;;;0.65;;
41259;SDS011;26993;48.958;9.330;2022-09-09T15:35:54;2.38;;;0.60;;
41259;SDS011;26993;48.958;9.330;2022-09-09T15:38:41;2.03;;;0.70;;
41259;SDS011;26993;48.958;9.330;2022-09-09T15:41:29;0.90;;;0.50;;
41259;SDS011;26993;48.958;9.330;2022-09-09T15:44:16;2.38;;;0.60;;
41259;SDS011;26993;48.958;9.330;2022-09-09T15:47:05;1.15;;;0.47;;
41259;SDS011;26993;48.958;9.330;2022-09-09T15:49:52;1.63;;;0.60;;
41259;SDS011;26993;48.958;9.330;2022-09-09T15:52:38;1.33;;;0.60;;
41259;SDS011;26993;48.958;9.330;2022-09-09T15:55:25;1.98;;;0.65;;
41259;SDS011;26993;48.958;9.330;2022-09-09T15:58:12;4.05;;;0.60;;
41259;SDS011;26993;48.958;9.330;2022-09-09T16:01:01;1.23;;;0.50;;
41259;SDS011;26993;48.958;9.330;2022-09-09T16:03:50;2.80;;;0.73;;
41259;SDS011;26993;48.958;9.330;2022-09-09T16:06:37;1.55;;;0.60;;
41259;SDS011;26993;48.958;9.330;2022-09-09T16:09:24;1.92;;;0.52;;
41259;SDS011;26993;48.958;9.330;2022-09-09T16:12:11;2.20;;;0.50;;
41259;SDS011;26993;48.958;9.330;2022-09-09T16:14:59;1.85;;;0.60;;
41259;SDS011;26993;48.958;9.330;2022-09-09T16:17:46;1.02;;;0.45;;
41259;SDS011;26993;48.958;9.330;2022-09-09T16:20:34;1.65;;;0.60;;
41259;SDS011;26993;48.958;9.330;2022-09-09T16:23:21;2.92;;;0.60;;
41259;SDS011;26993;48.958;9.330;2022-09-09T16:26:08;1.13;;;0.60;;
41259;SDS011;26993;48.958;9.330;2022-09-09T16:28:57;2.28;;;0.70;;
41259;SDS011;26993;48.958;9.330;2022-09-09T16:31:44;5.35;;;0.90;;
41259;SDS011;26993;48.958;9.330;2022-09-09T16:34:32;3.55;;;0.90;;
41259;SDS011;26993;48.958;9.330;2022-09-09T16:37:20;3.70;;;0.75;;
41259;SDS011;26993;48.958;9.330;2022-09-09T16:40:07;4.47;;;0.70;;
41259;SDS011;26993;48.958;9.330;2022-09-09T16:42:54;4.38;;;0.60;;
41259;SDS011;26993;48.958;9.330;2022-09-09T16:45:41;1.85;;;0.52;;
41259;SDS011;26993;48.958;9.330;2022-09-09T16:48:30;2.03;;;0.50;;
41259;SDS011;26993;48.958;9.330;2022-09-09T16:51:18;3.45;;;0.50;;
41259;SDS011;26993;48.958;9.330;2022-09-09T16:54:10;1.00;;;0.63;;
41259;SDS011;26993;48.958;9.330;2022-09-09T16:56:58;1.88;;;0.50;;
41259;SDS011;26993;48.958;9.330;2022-09-09T16:59:45;0.88;;;0.40;;
41259;SDS011;26993;48.958;9.330;2022-09-09T17:02:33;1.20;;;0.50;;
41259;SDS011;26993;48.958;9.330;2022-09-09T17:05:20;1.65;;;0.45;;
41259;SDS011;26993;48.958;9.330;2022-09-09T17:08:06;5.53;;;0.50;;
41259;SDS011;26993;48.958;9.330;2022-09-09T17:10:55;3.22;;;0.52;;